createdAt,value
2019-04-14T00:02:29.348Z,21.30
2019-04-14T00:05:00.280Z,22.02
2019-04-14T00:07:29.887Z,22.22
2019-04-14T00:10:00.634Z,22.58
2019-04-14T00:12:29.873Z,23.30
2019-04-14T00:14:59.842Z,22.62
2019-04-14T00:17:30.356Z,22.00
2019-04-14T00:20:00.994Z,21.75
2019-04-14T00:22:31.000Z,21.82
2019-04-14T00:25:02.404Z,22.65
2019-04-14T00:30:49.118Z,20.55
2019-04-14T00:33:19.822Z,21.40
2019-04-14T00:36:11.301Z,20.95
2019-04-14T00:38:43.450Z,20.68
2019-04-14T00:41:36.222Z,21.42
2019-04-14T00:44:05.766Z,21.27
2019-04-14T00:47:00.606Z,22.25
2019-04-14T00:49:31.074Z,20.68
2019-04-14T00:52:01.451Z,20.55
2019-04-14T00:54:32.509Z,20.60
2019-04-14T00:57:03.089Z,21.65
2019-04-14T00:59:33.374Z,20.10
2019-04-14T01:02:03.425Z,20.95
2019-04-14T01:04:33.744Z,19.75
2019-04-14T01:07:04.290Z,21.70
2019-04-14T01:09:34.723Z,20.80
2019-04-14T01:12:04.101Z,22.10
2019-04-14T01:14:34.255Z,20.80
2019-04-14T01:17:04.700Z,20.43
2019-04-14T01:19:35.130Z,22.93
2019-04-14T01:22:05.359Z,20.32
2019-04-14T01:24:34.589Z,21.62
2019-04-14T01:27:04.005Z,23.47
2019-04-14T01:29:34.157Z,22.10
2019-04-14T01:32:04.555Z,21.90
2019-04-14T01:34:34.750Z,22.30
2019-04-14T01:37:05.170Z,23.25
2019-04-14T01:39:35.050Z,21.87
2019-04-14T01:42:05.350Z,20.60
2019-04-14T01:44:35.249Z,21.33
2019-04-14T01:47:05.258Z,22.10
2019-04-14T01:49:35.457Z,20.95
2019-04-14T01:52:36.279Z,22.13
2019-04-14T01:55:35.019Z,21.25
2019-04-14T01:58:27.238Z,23.47
2019-04-14T02:01:14.842Z,22.70
2019-04-14T02:03:45.478Z,23.83
2019-04-14T02:06:15.762Z,21.60
2019-04-14T02:08:45.848Z,21.27
2019-04-14T02:11:15.864Z,22.45
2019-04-14T02:13:46.357Z,23.92
2019-04-14T02:16:25.971Z,23.55
2019-04-14T02:18:47.118Z,23.90
2019-04-14T02:21:17.504Z,21.20
2019-04-14T02:23:47.553Z,21.52
2019-04-14T02:26:17.678Z,20.27
2019-04-14T02:28:48.214Z,20.70
2019-04-14T02:31:41.718Z,22.98
2019-04-14T02:34:21.662Z,20.30
2019-04-14T02:36:46.257Z,20.20
2019-04-14T02:39:21.088Z,20.68
2019-04-14T02:44:25.691Z,21.80
2019-04-14T02:46:58.160Z,19.45
2019-04-14T02:49:18.742Z,20.10
2019-04-14T02:51:50.062Z,20.90
2019-04-14T02:54:25.567Z,19.45
2019-04-14T02:56:58.370Z,18.92
2019-04-14T02:59:22.676Z,18.90
2019-04-14T03:02:09.987Z,17.70
2019-04-14T03:04:25.499Z,19.05
2019-04-14T03:06:56.365Z,18.30
2019-04-14T03:09:38.137Z,16.35
2019-04-14T03:14:32.413Z,14.23
2019-04-14T03:20:07.148Z,13.68
2019-04-14T03:22:37.261Z,12.50
2019-04-14T03:25:16.738Z,11.97
2019-04-14T03:27:58.684Z,9.83
2019-04-14T03:36:20.267Z,10.15
2019-04-14T03:38:24.478Z,9.45
2019-04-14T03:40:48.962Z,9.90
2019-04-14T03:46:07.321Z,10.98
2019-04-14T03:48:45.115Z,11.00
2019-04-14T03:50:56.652Z,11.93
2019-04-14T03:53:37.729Z,10.85
2019-04-14T03:56:14.269Z,12.20
2019-04-14T03:58:42.109Z,11.18
2019-04-14T04:01:12.605Z,11.12
2019-04-14T04:03:41.994Z,10.80
2019-04-14T04:06:11.816Z,10.58
2019-04-14T04:08:42.024Z,10.50
2019-04-14T04:11:12.553Z,10.82
2019-04-14T04:13:41.883Z,11.75
2019-04-14T04:16:31.142Z,10.72
2019-04-14T04:19:12.978Z,11.03
2019-04-14T04:21:59.611Z,11.15
2019-04-14T04:24:43.321Z,11.90
2019-04-14T04:27:22.115Z,11.95
2019-04-14T04:30:01.601Z,11.75
2019-04-14T04:33:00.055Z,11.60
2019-04-14T04:35:37.086Z,11.03
2019-04-14T04:38:13.835Z,11.20
2019-04-14T04:40:43.986Z,11.97
2019-04-14T04:43:13.249Z,10.53
2019-04-14T04:45:43.114Z,11.25
2019-04-14T04:48:13.165Z,10.25
2019-04-14T04:50:43.156Z,10.88
2019-04-14T04:53:13.652Z,11.90
2019-04-14T04:55:43.879Z,10.35
2019-04-14T04:58:13.213Z,11.35
2019-04-14T05:00:42.407Z,10.40
2019-04-14T05:03:12.443Z,9.15
2019-04-14T05:06:09.604Z,9.23
2019-04-14T05:08:41.670Z,10.15
2019-04-14T05:11:29.416Z,9.40
2019-04-14T05:14:00.137Z,8.85
2019-04-14T05:16:30.251Z,9.78
2019-04-14T05:19:12.313Z,9.88
2019-04-14T05:21:30.410Z,9.15
2019-04-14T05:24:00.568Z,9.15
2019-04-14T05:26:30.821Z,10.03
2019-04-14T05:29:01.317Z,8.78
2019-04-14T05:31:31.783Z,9.43
2019-04-14T05:34:02.249Z,9.50
2019-04-14T05:36:38.849Z,10.55
2019-04-14T05:39:11.387Z,9.40
2019-04-14T05:41:55.898Z,9.68
2019-04-14T05:44:12.707Z,9.60
2019-04-14T05:46:42.535Z,9.63
2019-04-14T05:49:24.505Z,12.80
2019-04-14T05:51:44.012Z,10.35
2019-04-14T05:54:14.177Z,8.80
2019-04-14T05:56:44.780Z,8.23
2019-04-14T05:59:21.995Z,9.20
2019-04-14T06:01:51.417Z,8.85
2019-04-14T06:04:22.180Z,9.40
2019-04-14T06:06:53.649Z,9.80
2019-04-14T06:09:22.986Z,9.38
2019-04-14T06:11:54.618Z,10.20
2019-04-14T06:14:23.867Z,10.43
2019-04-14T06:16:53.142Z,10.30
2019-04-14T06:19:36.366Z,10.28
2019-04-14T06:21:56.635Z,10.03
2019-04-14T06:24:25.919Z,9.28
2019-04-14T06:26:57.005Z,10.15
2019-04-14T06:57:44.836Z,8.03
2019-04-14T07:00:21.634Z,9.98
2019-04-14T07:02:48.484Z,8.20
2019-04-14T07:05:18.655Z,8.75
2019-04-14T08:42:09.592Z,14.78
2019-04-14T08:45:48.845Z,15.25
2019-04-14T09:45:52.041Z,20.70
2019-04-14T09:48:34.284Z,21.37
2019-04-14T09:51:05.366Z,21.77
2019-04-14T09:53:35.022Z,20.27
2019-04-14T09:56:04.603Z,22.02
2019-04-14T09:58:34.076Z,21.70
2019-04-14T10:01:04.532Z,21.05
2019-04-14T10:03:36.189Z,22.32
2019-04-14T10:06:12.120Z,21.02
2019-04-14T10:11:47.944Z,21.40
2019-04-14T10:21:16.917Z,22.80
2019-04-14T10:24:40.135Z,22.58
2019-04-14T10:31:04.410Z,23.47
2019-04-14T10:33:37.399Z,22.95
2019-04-14T10:36:13.545Z,22.85
2019-04-14T10:39:49.497Z,22.55
2019-04-14T10:42:40.723Z,23.65
2019-04-14T10:51:30.254Z,24.55
2019-04-14T11:16:38.091Z,23.07
2019-04-14T11:19:10.019Z,24.47
2019-04-14T11:21:42.884Z,24.25
2019-04-14T11:27:59.392Z,24.65
2019-04-14T11:30:29.729Z,23.83
2019-04-14T11:36:52.798Z,24.57
2019-04-14T11:39:23.771Z,25.10
2019-04-14T11:41:56.836Z,25.88
2019-04-14T12:03:37.492Z,32.63
2019-04-14T12:06:34.171Z,32.98
2019-04-14T12:09:25.984Z,33.90
2019-04-14T12:12:05.241Z,32.67
2019-04-14T12:14:38.767Z,33.65
2019-04-14T12:17:16.118Z,35.52
2019-04-14T12:20:08.387Z,37.38
2019-04-14T12:22:37.919Z,35.48
2019-04-14T12:25:08.041Z,35.08
2019-04-14T12:27:37.533Z,33.58
2019-04-14T12:30:11.078Z,34.25
2019-04-14T12:38:22.362Z,33.83
2019-04-14T12:41:08.147Z,34.48
2019-04-14T12:52:33.345Z,35.68
2019-04-14T12:53:26.772Z,36.90
2019-04-14T12:56:13.972Z,35.90
2019-04-14T13:07:51.811Z,37.58
2019-04-14T13:10:22.171Z,39.60
2019-04-14T13:13:14.168Z,38.20
2019-04-14T13:15:53.483Z,38.23
2019-04-14T13:21:04.805Z,40.25
2019-04-14T13:23:36.486Z,36.85
2019-04-14T13:26:21.519Z,37.35
2019-04-14T14:37:40.557Z,40.92
2019-04-14T14:40:21.738Z,39.92
2019-04-14T16:46:50.086Z,39.98
2019-04-14T16:55:04.834Z,38.30
2019-04-14T16:58:01.236Z,40.33
2019-04-14T17:05:25.897Z,40.67
2019-04-14T17:07:56.105Z,38.35
2019-04-14T17:10:28.069Z,39.25
2019-04-14T17:12:59.471Z,39.00
2019-04-14T17:15:50.852Z,41.68
2019-04-14T17:19:06.168Z,39.65
2019-04-14T17:22:32.024Z,38.28
2019-04-14T17:25:04.608Z,39.60
2019-04-14T17:27:51.806Z,40.45
2019-04-14T17:30:52.203Z,37.70
2019-04-14T17:33:48.724Z,37.38
2019-04-14T17:37:02.712Z,38.05
2019-04-14T17:39:37.634Z,38.10
2019-04-14T17:42:48.064Z,38.75
2019-04-14T17:46:00.233Z,37.08
2019-04-14T18:04:21.455Z,41.42
2019-04-14T18:07:16.639Z,39.95
2019-04-14T18:10:07.049Z,40.55
2019-04-14T18:12:46.947Z,40.00
2019-04-14T18:15:35.478Z,42.40
2019-04-14T18:18:25.509Z,41.60
2019-04-14T18:20:58.935Z,41.60
2019-04-14T18:23:31.774Z,40.88
2019-04-14T18:27:29.089Z,41.58
2019-04-14T18:30:12.599Z,43.15
2019-04-14T18:33:12.152Z,43.95
2019-04-14T18:36:06.294Z,45.58
2019-04-14T18:40:13.437Z,46.53
2019-04-14T18:43:51.131Z,44.95
2019-04-14T18:46:53.485Z,46.75
2019-04-14T18:57:35.602Z,47.00
2019-04-14T19:08:22.747Z,48.83
2019-04-14T19:14:17.520Z,47.38
2019-04-14T19:17:02.258Z,47.45
2019-04-14T19:20:55.596Z,45.92
2019-04-14T19:27:14.564Z,43.45
2019-04-14T19:29:59.821Z,45.80
2019-04-14T19:37:39.087Z,44.38
2019-04-14T19:40:41.416Z,44.75
2019-04-14T19:43:51.552Z,48.05
2019-04-14T19:47:19.749Z,45.08
2019-04-14T19:49:44.622Z,44.18
2019-04-14T19:52:18.079Z,43.33
2019-04-14T20:06:33.610Z,44.15
2019-04-14T20:09:30.900Z,44.35
2019-04-14T20:12:02.567Z,43.60
2019-04-14T20:14:32.153Z,43.35
2019-04-14T20:18:21.105Z,45.63
2019-04-14T20:21:16.393Z,45.95
2019-04-14T20:24:10.070Z,44.67
2019-04-14T20:29:33.232Z,45.17
2019-04-14T20:32:31.218Z,45.43
2019-04-14T20:35:14.179Z,40.67
2019-04-14T20:37:54.541Z,42.25
2019-04-14T20:40:40.122Z,44.65
2019-04-14T20:43:10.837Z,42.25
2019-04-14T20:46:00.679Z,44.35
2019-04-14T20:48:43.891Z,44.98
2019-04-14T20:51:13.019Z,42.08
2019-04-14T20:53:42.355Z,36.40
2019-04-14T20:56:11.774Z,36.63
2019-04-14T20:58:41.911Z,35.28
2019-04-14T21:01:13.024Z,35.45
2019-04-14T21:07:13.638Z,36.45
2019-04-14T21:10:10.333Z,35.25
2019-04-14T21:12:57.865Z,37.08
2019-04-14T21:15:34.781Z,38.23
2019-04-14T21:18:30.886Z,33.73
2019-04-14T21:21:08.110Z,35.88
2019-04-14T21:23:43.426Z,34.45
2019-04-14T21:26:31.846Z,32.70
2019-04-14T21:29:20.709Z,35.45
2019-04-14T21:31:57.023Z,36.38
2019-04-14T21:34:32.609Z,33.10
2019-04-14T21:37:17.400Z,33.95
2019-04-14T21:39:50.639Z,33.73
2019-04-14T21:42:20.258Z,32.45
2019-04-14T21:44:49.522Z,34.92
2019-04-14T21:47:18.768Z,35.63
2019-04-14T21:49:48.125Z,33.30
2019-04-14T21:52:38.897Z,35.88
2019-04-14T21:55:09.484Z,35.43
2019-04-14T21:57:49.646Z,36.50
2019-04-14T22:00:41.420Z,34.58
2019-04-14T22:03:31.579Z,34.05
2019-04-14T22:06:07.717Z,36.45
2019-04-14T22:08:41.428Z,35.90
2019-04-14T22:11:14.548Z,35.05
2019-04-14T22:13:45.169Z,36.25
2019-04-14T22:16:18.232Z,35.05
2019-04-14T22:18:47.673Z,36.03
2019-04-14T22:21:17.118Z,34.40
2019-04-14T22:23:59.925Z,34.85
2019-04-14T22:26:25.919Z,34.70
2019-04-14T22:28:58.165Z,36.60
2019-04-14T22:31:29.362Z,33.95
2019-04-14T22:34:36.382Z,37.45
2019-04-14T22:37:05.623Z,34.58
2019-04-14T22:39:34.900Z,34.30
2019-04-14T22:42:04.274Z,32.75
2019-04-14T22:44:58.001Z,34.43
2019-04-14T22:47:26.661Z,33.23
2019-04-14T22:50:21.001Z,33.08
2019-04-14T22:52:53.438Z,33.15
2019-04-14T22:55:22.805Z,34.50
2019-04-14T22:57:52.216Z,33.65
2019-04-14T23:00:40.289Z,31.82
2019-04-14T23:03:27.982Z,32.35
2019-04-14T23:06:02.764Z,35.80
2019-04-14T23:08:36.622Z,32.88
2019-04-14T23:11:14.604Z,31.57
2019-04-14T23:14:07.958Z,33.18
2019-04-14T23:16:58.494Z,34.38
2019-04-14T23:19:35.709Z,31.50
2019-04-14T23:22:16.981Z,32.10
2019-04-14T23:24:47.410Z,33.90
2019-04-14T23:27:16.693Z,34.43
2019-04-14T23:29:46.003Z,31.57
2019-04-14T23:32:15.358Z,32.58
2019-04-14T23:34:44.616Z,31.10
2019-04-14T23:37:13.899Z,31.77
2019-04-14T23:39:45.730Z,33.70
2019-04-14T23:42:15.343Z,33.70
2019-04-14T23:44:44.617Z,31.17
2019-04-14T23:47:14.214Z,32.60
2019-04-14T23:49:43.458Z,32.73
2019-04-14T23:52:12.784Z,31.60
2019-04-14T23:54:42.090Z,31.10
2019-04-14T23:57:11.417Z,32.53
2019-04-14T23:59:40.639Z,31.52
